CYTB weather

Tillsonburg Airport
Tillsonburg, Ontario, Canada

Public forecast

Using degrees Celsius for public forecast. Weather courtesy of forecast.io.

Closest aviation weather report (METAR) to Tillsonburg Airport

Closest report is London Airport, 19.0 nm (35.2 km) WNW. Retrieved 2020/06/03 06:00 UTC (21 minutes ago):

CYXU 030600Z 31003KT 15SM BKN190 21/17 A2971 RMK CI7 SLP058 DENSITY ALT 2100FT

Closest aviation forecast (TAF) to Tillsonburg Airport

Closest forecast is London Airport, 19.0 nm (35.2 km) WNW. Retrieved 2020/06/03 06:45 UTC (0 seconds ago):

TAF TAF CYXU 030541Z 0306/0406 28005KT P6SM FEW060 FM030800 VRB03KT P6SM BKN040 BKN100 TEMPO 0308/0311 5SM -SHRA BR PROB40 0309/0311 VRB15G30KT 2SM TSRA BR BKN020 OVC040CB FM031100 VRB03KT P6SM -SHRA BKN040 BKN070 TEMPO 0311/0314 3SM -SHRA BR OVC020 PROB40 0311/0314 VRB15G30KT 1SM +TSRA BR BKN020 OVC040CB FM031400 32012G22KT P6SM -SHRA FEW008 BKN060 FM031700 27012G22KT P6SM FEW020 BKN090 FM032000 28012G22KT P6SM SCT050 BECMG 0322/0324 32012KT BECMG 0402/0404 VRB03KT RMK NXT FCST BY 031200Z